Aviation Digital Data Service (ADDS)

Output produced by METARs form (1810 UTC 14 August 2018)
found at http://www.aviationweather.gov/adds/metars/
 
FMMI 141800Z 14006KT 110V180 9999 FEW020 13/09 Q1030 NOSIG
TAF FMMI 141700Z 1418/1524 12010KT 9999 FEW020 SCT023 
     TEMPO 1507/1515 14015G25KT
       
FMNA 141500Z 14014KT 9999 FEW017 24/16 Q1018
TAF FMNA 141700Z 1418/1518 14015KT 9999 SCT020 
     TEMPO 1509/1515 14020G30KT
       
FMNM 141800Z 14006KT 9999 FEW040 25/14 Q1021 NOSIG
TAF FMNM 141700Z 1418/1518 VRB04KT 9999 FEW023 
     BECMG 1502/1505 14010KT
       
FMNN 141500Z 22004KT 9999 SCT020 26/// Q1018
TAF FMNN 141700Z 1418/1518 12008KT 9999 SCT020 
     BECMG 1508/1510 24010KT
       
FMMS 141500Z 18012KT 9999 VCSH SCT017 BKN040 24/18 Q1024
TAF FMMS 141700Z 1418/1518 16010KT 9999 SCT017 SCT033 
     PROB40 
     TEMPO 1418/1503 4500 SHRA 
     PROB40 
     TEMPO 1507/1514 18012G25KT 4500 SHRA
       
FMMT 141800Z 15006KT 110V180 9999 SCT017 23/18 Q1026 NOSIG
TAF FMMT 141717Z 1418/1518 00000KT 9999 SCT017 SCT033 
     BECMG 1502/1505 14010KT 
     PROB30 
     TEMPO 1506/1515 4000 SHRA
       
FMSD 141800Z 08016KT CAVOK 22/18 Q1022
TAF FMSD 141700Z 1418/1518 08012KT 9999 FEW020 
     PROB40 
     TEMPO 1509/1516 08015G25KT
       
TAF FMST 141700Z 1418/1518 10006KT 9999 FEW020 
     BECMG 1509/1511 20010KT